Terminal Aerodrome Forecast
Issued by NWS

Home | Current Version | Previous Version | Text Only | Print | Product List | Glossary On
Versions: 1 2 3 4 5 6 7 8 9 10 11 12 13 14 15 16 17 18 19 20 21 22 23 24 25 26 27 28 29 30 31
000
FTUS43 KDMX 261133
TAFFOD
TAF
KFOD 261133Z 2612/2712 21010KT P6SM OVC023
     FM261330 26012KT P6SM SCT035 BKN050
     FM261800 32015KT P6SM BKN100
     FM270200 34008KT P6SM BKN030 BKN120=

USA.gov is the U.S. government's official web portal to all federal, state and local government web resources and services.